Glass Lake, New York
Current Conditions -  °F | °C
As of 7:51 AM on Thursday 27 Nov 2014 (Local Time) from KALB Reporting Station
Overcast Overcast  
Wind Chill: 25°   Ceiling: 2400
Heat Index: 30°   Visibility: 10mi
Dew Point: 26°   Wind: 5mph
Humidity: 85%   Direction: 340°NNW
Pressure: 29.98"   Gusts: NA
Location:  42.6497°N, 73.5273°W
Report Text: KALB 271251Z 34004KT 10SM FEW008 OVC024 M01/M03 A2998 RMK AO2 SLP157 T10111033
Loading
Personal Weather Stations






























Interactive Weather Map New forecast layout! Learn more

10-Day Weather Forecast

Advertisements
Track Severe Weather on mobile